Terminal Aerodrome Forecast
Issued by NWS

Home | Current Version | Previous Version | Graphics & Text | Print | Product List | Glossary On
Versions: 1 2 3 4 5 6 7 8 9 10 11 12 13 14 15 16 17 18
000
FTUS43 KABR 172300
TAFPIR
TAF
KPIR 172320Z 1800/1824 08009KT P6SM VCSH BKN100
     FM181500 14012KT P6SM SCT250
     FM181800 16017G25KT P6SM SKC=

USA.gov is the U.S. government's official web portal to all federal, state and local government web resources and services.